Terminal Aerodrome Forecast
Issued by NWS

Home | Current Version | Previous Version | Text Only | Print | Product List | Glossary On
Versions: 1 2 3 4 5 6 7 8 9 10 11 12
000
FTUS43 KFGF 181100
TAFTVF
TAF
KTVF 181120Z 1812/1912 10010KT P6SM SCT080
      TEMPO 1812/1814 BKN080
     FM181400 12012KT P6SM BKN080
     FM181800 13018G28KT P6SM BKN100
     FM190000 13020KT P6SM BKN080
      AMD LTD TO CLD VIS AND WIND=

USA.gov is the U.S. government's official web portal to all federal, state and local government web resources and services.